Time;durP1;ratioP1;P1;durP2;ratioP2;P2;SDS_P1;SDS_P2;PMS_P1;PMS_P2;Temp;Humidity;BMP_temperature;BMP_pressure;BME280_temperature;BME280_humidity;BME280_pressure;Samples;Min_cycle;Max_cycle;Signal;HPM_P1;HPM_P2
2023/03/11 00:02:40;;;;;;;0.40;0.30;;;6.80;1.00;;;;;;8371318;28;20208;-70
2023/03/11 00:06:40;;;;;;;0.40;0.30;;;6.80;1.00;;;;;;8364854;28;20599;-71
2023/03/11 00:10:44;;;;;;;0.43;0.33;;;6.70;21.40;;;;;;8367825;28;20516;-72
2023/03/11 00:14:45;;;;;;;0.97;0.40;;;6.60;99.90;;;;;;8368517;28;20178;-71
2023/03/11 00:18:50;;;;;;;0.67;0.40;;;6.60;99.90;;;;;;8369554;28;20227;-68
2023/03/11 00:22:52;;;;;;;0.63;0.40;;;6.50;1.00;;;;;;8379530;28;20201;-72
2023/03/11 00:26:53;;;;;;;0.40;0.37;;;6.50;99.90;;;;;;8367195;28;20189;-71
2023/03/11 00:30:54;;;;;;;1.80;0.40;;;6.40;1.00;;;;;;8365670;28;20201;-71
2023/03/11 00:34:55;;;;;;;0.60;0.40;;;6.30;1.00;;;;;;8362500;28;20715;-72
2023/03/11 00:38:58;;;;;;;2.63;0.30;;;6.20;78.00;;;;;;8366704;28;20497;-71
2023/03/11 00:42:59;;;;;;;0.50;0.40;;;6.20;99.90;;;;;;8368743;28;20212;-70
2023/03/11 00:47:00;;;;;;;0.50;0.37;;;6.10;1.00;;;;;;8372500;28;20232;-72
2023/03/11 00:51:01;;;;;;;1.43;0.60;;;6.10;1.00;;;;;;8362111;28;20307;-69
2023/03/11 00:55:02;;;;;;;1.10;0.60;;;6.00;99.90;;;;;;8367728;28;20189;-71
2023/03/11 00:59:03;;;;;;;1.63;0.60;;;6.00;99.90;;;;;;8364352;28;20205;-70
2023/03/11 01:03:04;;;;;;;0.80;0.60;;;6.00;1.00;;;;;;8366062;28;20222;-67
2023/03/11 01:07:04;;;;;;;1.10;0.63;;;6.00;1.00;;;;;;8364890;28;20189;-67
2023/03/11 01:11:07;;;;;;;1.10;0.60;;;5.90;1.00;;;;;;8371635;28;20209;-69
2023/03/11 01:15:15;;;;;;;0.90;0.40;;;5.90;99.90;;;;;;8358856;28;20182;-69
2023/03/11 01:19:16;;;;;;;1.10;0.57;;;5.80;99.90;;;;;;8362412;28;20193;-68
2023/03/11 01:23:18;;;;;;;0.60;0.40;;;5.70;51.30;;;;;;8365514;28;20205;-70
2023/03/11 01:27:19;;;;;;;0.83;0.40;;;5.70;1.00;;;;;;8363541;28;20178;-70
2023/03/11 01:31:20;;;;;;;0.87;0.47;;;5.60;1.00;;;;;;8363194;28;20213;-70
2023/03/11 01:35:23;;;;;;;1.43;0.53;;;5.70;1.00;;;;;;8360533;28;20523;-70
2023/03/11 01:39:24;;;;;;;0.30;0.30;;;5.60;1.00;;;;;;8366537;28;20182;-68
2023/03/11 01:43:55;;;;;;;0.50;0.50;;;5.60;99.90;;;;;;8363638;28;20204;-71
2023/03/11 01:47:57;;;;;;;1.47;0.50;;;5.50;29.80;;;;;;8366146;28;20193;-68
2023/03/11 01:52:02;;;;;;;0.40;0.40;;;5.40;1.00;;;;;;8364860;28;20216;-67
2023/03/11 01:56:04;;;;;;;0.40;0.40;;;5.40;1.00;;;;;;8365454;28;20239;-70
2023/03/11 02:00:08;;;;;;;0.63;0.40;;;5.00;99.90;;;;;;8362438;28;20214;-69
2023/03/11 02:04:09;;;;;;;0.47;0.30;;;4.50;1.00;;;;;;8364574;28;20216;-68
2023/03/11 02:08:11;;;;;;;0.30;0.27;;;3.90;34.00;;;;;;8368745;28;20178;-67
2023/03/11 02:12:13;;;;;;;0.70;0.57;;;3.60;99.90;;;;;;8361720;28;20213;-69
2023/03/11 02:16:16;;;;;;;0.53;0.40;;;3.30;99.90;;;;;;8363038;28;20177;-69
2023/03/11 02:20:43;;;;;;;0.60;0.50;;;3.20;99.90;;;;;;8360234;28;20190;-67
2023/03/11 02:25:08;;;;;;;0.50;0.50;;;3.10;99.90;;;;;;8362833;28;20185;-72
2023/03/11 02:29:10;;;;;;;0.40;0.40;;;3.00;1.00;;;;;;8367444;28;20207;-68
2023/03/11 02:33:13;;;;;;;0.20;0.20;;;2.90;99.90;;;;;;8363346;28;20525;-67
2023/03/11 02:37:16;;;;;;;0.40;0.40;;;2.80;99.90;;;;;;8369206;28;20237;-70
2023/03/11 02:41:17;;;;;;;0.40;0.30;;;2.80;1.00;;;;;;8364493;28;20192;-68
2023/03/11 02:45:20;;;;;;;0.30;0.30;;;2.80;1.00;;;;;;8363367;28;20536;-69
2023/03/11 02:49:22;;;;;;;0.87;0.40;;;2.70;1.00;;;;;;8362322;28;20209;-69
2023/03/11 02:53:25;;;;;;;0.43;0.40;;;2.70;1.00;;;;;;8362128;28;20192;-68
2023/03/11 02:57:26;;;;;;;0.20;0.20;;;2.60;11.70;;;;;;8362475;28;20191;-69
2023/03/11 03:01:27;;;;;;;0.40;0.40;;;2.50;26.20;;;;;;8365895;28;20189;-68
2023/03/11 03:05:28;;;;;;;0.40;0.30;;;2.30;99.90;;;;;;8365734;28;20185;-68
2023/03/11 03:09:29;;;;;;;0.47;0.40;;;2.20;99.90;;;;;;8364054;28;20208;-67
2023/03/11 03:13:31;;;;;;;0.50;0.40;;;2.10;1.00;;;;;;8363263;28;20181;-67
2023/03/11 03:17:32;;;;;;;0.47;0.40;;;1.90;1.00;;;;;;8364221;28;20189;-67
2023/03/11 03:21:33;;;;;;;0.47;0.47;;;1.80;99.90;;;;;;8361779;28;20203;-68
2023/03/11 03:25:34;;;;;;;0.70;0.37;;;1.70;1.00;;;;;;8362206;28;20254;-67
2023/03/11 03:29:34;;;;;;;0.70;0.43;;;1.60;99.90;;;;;;8365766;28;20217;-69
2023/03/11 03:33:36;;;;;;;0.30;0.30;;;1.60;1.00;;;;;;8376123;28;20270;-69
2023/03/11 03:37:37;;;;;;;0.50;0.40;;;1.40;24.00;;;;;;8364295;28;20212;-67
2023/03/11 03:41:38;;;;;;;1.57;0.40;;;1.40;1.00;;;;;;8366580;28;20197;-68
2023/03/11 03:45:39;;;;;;;0.50;0.50;;;1.40;1.00;;;;;;8362561;28;20284;-69
2023/03/11 03:49:40;;;;;;;0.57;0.50;;;1.30;99.90;;;;;;8368694;28;20622;-69
2023/03/11 03:53:41;;;;;;;0.40;0.40;;;1.20;99.90;;;;;;8368302;28;20184;-67
2023/03/11 03:57:42;;;;;;;0.50;0.30;;;1.10;99.90;;;;;;8367827;28;20181;-69
2023/03/11 04:01:43;;;;;;;0.40;0.40;;;1.00;99.90;;;;;;8363739;28;20196;-68
2023/03/11 04:05:44;;;;;;;0.30;0.30;;;1.00;1.00;;;;;;8371678;28;20189;-69
2023/03/11 04:09:45;;;;;;;0.87;0.43;;;1.00;99.90;;;;;;8366977;28;20210;-70
2023/03/11 04:13:46;;;;;;;0.57;0.40;;;1.00;99.90;;;;;;8367833;28;20188;-68
2023/03/11 04:17:46;;;;;;;0.73;0.63;;;0.90;1.00;;;;;;8367480;28;20185;-70
2023/03/11 04:21:49;;;;;;;1.37;0.50;;;0.90;1.00;;;;;;8370018;28;20210;-68
2023/03/11 04:25:50;;;;;;;0.60;0.60;;;0.90;14.40;;;;;;8362761;28;20197;-71
2023/03/11 04:29:51;;;;;;;1.10;0.50;;;0.80;96.60;;;;;;8365091;28;20232;-68
2023/03/11 04:33:52;;;;;;;0.77;0.60;;;0.80;99.90;;;;;;8366438;28;20185;-68
2023/03/11 04:37:52;;;;;;;0.50;0.50;;;0.70;99.90;;;;;;8364113;28;20216;-69
2023/03/11 04:41:53;;;;;;;0.70;0.60;;;0.70;99.90;;;;;;8362169;28;20251;-68
2023/03/11 04:45:54;;;;;;;0.60;0.60;;;0.70;99.90;;;;;;8361164;28;20197;-70
2023/03/11 04:49:55;;;;;;;0.60;0.60;;;0.70;99.90;;;;;;8364778;28;20233;-70
2023/03/11 04:53:56;;;;;;;0.70;0.70;;;0.70;99.90;;;;;;8365361;28;20209;-70
2023/03/11 04:57:57;;;;;;;0.80;0.77;;;0.60;99.90;;;;;;8367255;28;20231;-72
2023/03/11 05:01:57;;;;;;;1.20;0.90;;;0.60;99.90;;;;;;8371212;28;20189;-68
2023/03/11 05:05:59;;;;;;;0.90;0.90;;;0.60;99.90;;;;;;8366557;28;20272;-69
2023/03/11 05:09:59;;;;;;;1.10;1.00;;;0.60;99.90;;;;;;8364571;28;20217;-68
2023/03/11 05:14:00;;;;;;;2.97;1.33;;;0.50;99.90;;;;;;8365015;28;20189;-70
2023/03/11 05:18:02;;;;;;;1.40;1.30;;;0.50;99.90;;;;;;8366136;28;20189;-69
2023/03/11 05:22:05;;;;;;;1.53;1.43;;;0.50;99.90;;;;;;8380097;28;20189;-68
2023/03/11 05:26:06;;;;;;;1.93;1.40;;;0.50;99.90;;;;;;8365899;28;20181;-71
2023/03/11 05:30:07;;;;;;;7.43;1.30;;;0.40;99.90;;;;;;8369718;28;20217;-68
2023/03/11 05:34:08;;;;;;;1.43;1.13;;;0.40;99.90;;;;;;8363195;28;20261;-71
2023/03/11 05:38:09;;;;;;;2.87;1.40;;;0.50;99.90;;;;;;8367261;28;20209;-70
2023/03/11 05:42:10;;;;;;;1.23;1.13;;;0.40;99.90;;;;;;8370509;28;20198;-72
2023/03/11 05:46:11;;;;;;;2.07;1.10;;;0.40;99.90;;;;;;8364936;28;20481;-71
2023/03/11 05:50:12;;;;;;;1.33;1.07;;;0.40;99.90;;;;;;8364185;28;20210;-71
2023/03/11 05:54:16;;;;;;;1.00;0.90;;;0.40;99.90;;;;;;8366306;28;20191;-72
2023/03/11 05:58:17;;;;;;;1.57;0.80;;;0.30;99.90;;;;;;8369927;28;20288;-71
2023/03/11 06:02:19;;;;;;;0.87;0.73;;;0.40;99.90;;;;;;8365388;28;20357;-72
2023/03/11 06:06:20;;;;;;;1.50;1.30;;;0.40;99.90;;;;;;8363184;28;20208;-72
2023/03/11 06:10:21;;;;;;;0.57;0.57;;;0.30;99.90;;;;;;8365127;28;20214;-72
2023/03/11 06:14:22;;;;;;;1.20;1.03;;;0.30;99.90;;;;;;8364097;28;20283;-70
2023/03/11 06:18:25;;;;;;;4.50;2.40;;;0.30;99.90;;;;;;8358313;28;20185;-72
2023/03/11 06:22:26;;;;;;;2.20;1.20;;;0.30;99.90;;;;;;8361997;28;20188;-72
2023/03/11 06:26:27;;;;;;;1.00;0.70;;;0.30;99.90;;;;;;8360306;28;20258;-70
2023/03/11 06:30:28;;;;;;;3.13;1.50;;;0.30;99.90;;;;;;8367089;28;20232;-71
2023/03/11 06:34:28;;;;;;;1.93;1.33;;;0.30;99.90;;;;;;8365319;28;20181;-71
2023/03/11 06:38:30;;;;;;;4.47;2.73;;;0.30;99.90;;;;;;8365422;28;20235;-70
2023/03/11 06:42:34;;;;;;;1.50;1.00;;;0.30;99.90;;;;;;8364941;28;20304;-71
2023/03/11 06:46:34;;;;;;;6.27;2.90;;;0.30;99.90;;;;;;8365374;28;20414;-71
2023/03/11 06:50:35;;;;;;;2.30;1.10;;;0.40;99.90;;;;;;8358800;28;20209;-71
2023/03/11 06:54:36;;;;;;;2.03;1.53;;;0.40;99.90;;;;;;8367615;28;20185;-72
2023/03/11 06:58:39;;;;;;;2.50;1.27;;;0.40;99.90;;;;;;8365326;28;20181;-74
2023/03/11 07:02:40;;;;;;;2.90;1.63;;;0.40;99.90;;;;;;8366494;28;20181;-74
2023/03/11 07:06:42;;;;;;;2.13;1.70;;;0.40;99.90;;;;;;8364818;28;20186;-72
2023/03/11 07:10:43;;;;;;;1.80;1.23;;;0.40;99.90;;;;;;8365723;28;20208;-71
2023/03/11 07:14:44;;;;;;;2.87;1.37;;;0.40;99.90;;;;;;8364025;28;20235;-72
2023/03/11 07:18:46;;;;;;;2.53;1.33;;;0.40;99.90;;;;;;8363602;28;20227;-74
2023/03/11 07:22:47;;;;;;;2.10;0.90;;;0.40;99.90;;;;;;8360274;28;20182;-73
2023/03/11 07:26:48;;;;;;;1.33;0.97;;;0.40;99.90;;;;;;8363096;28;20186;-72
2023/03/11 07:30:50;;;;;;;0.90;0.70;;;0.40;99.90;;;;;;8365885;28;20217;-75
2023/03/11 07:34:51;;;;;;;2.43;0.90;;;0.40;99.90;;;;;;8369114;28;20183;-73
2023/03/11 07:39:02;;;;;;;1.33;0.90;;;0.40;99.90;;;;;;8365024;28;20186;-69
2023/03/11 07:43:04;;;;;;;1.07;0.97;;;0.50;99.90;;;;;;8365182;28;20212;-72
2023/03/11 07:47:05;;;;;;;3.00;1.90;;;0.50;99.90;;;;;;8359829;28;20209;-72
2023/03/11 07:51:12;;;;;;;2.00;1.07;;;0.50;99.90;;;;;;8361543;28;20216;-73
2023/03/11 07:55:13;;;;;;;2.73;1.60;;;0.50;99.90;;;;;;8361752;28;20219;-73
2023/03/11 07:59:14;;;;;;;2.17;1.00;;;0.50;99.90;;;;;;8377436;28;20229;-73
2023/03/11 08:03:16;;;;;;;1.40;1.30;;;0.50;99.90;;;;;;8364871;28;20186;-73
2023/03/11 08:07:17;;;;;;;1.50;1.40;;;0.60;99.90;;;;;;8363713;28;20185;-72
2023/03/11 08:11:22;;;;;;;2.37;1.63;;;0.50;99.90;;;;;;8361874;28;20217;-72
2023/03/11 08:15:23;;;;;;;5.37;2.43;;;0.60;99.90;;;;;;8360355;28;20185;-73
2023/03/11 08:19:24;;;;;;;4.47;2.40;;;0.60;99.90;;;;;;8367982;28;20193;-72
2023/03/11 08:23:25;;;;;;;5.00;2.03;;;0.60;99.90;;;;;;8362348;28;20243;-71
2023/03/11 08:27:28;;;;;;;4.17;2.20;;;0.70;99.90;;;;;;8365131;28;20178;-72
2023/03/11 08:31:31;;;;;;;3.80;2.87;;;0.70;99.90;;;;;;8364656;28;20212;-72
2023/03/11 08:35:33;;;;;;;3.37;1.80;;;0.80;99.90;;;;;;8368297;28;20212;-72
2023/03/11 08:39:33;;;;;;;3.30;2.03;;;0.80;99.90;;;;;;8367863;28;20235;-72
2023/03/11 08:43:35;;;;;;;3.77;2.30;;;0.80;99.90;;;;;;8366176;28;20254;-72
2023/03/11 08:47:37;;;;;;;3.53;1.37;;;0.80;99.90;;;;;;8364604;28;20190;-73
2023/03/11 08:51:38;;;;;;;3.23;2.17;;;0.80;99.90;;;;;;8365482;28;20205;-73
2023/03/11 08:55:39;;;;;;;2.40;1.90;;;0.90;99.90;;;;;;8365925;28;20456;-73
2023/03/11 08:59:40;;;;;;;4.63;2.30;;;0.90;99.90;;;;;;8367384;28;20189;-75
2023/03/11 09:03:41;;;;;;;2.03;1.80;;;1.00;99.90;;;;;;8369039;28;20197;-71
2023/03/11 09:07:42;;;;;;;2.97;1.77;;;1.00;99.90;;;;;;8368688;28;20774;-73
2023/03/11 09:11:43;;;;;;;4.23;2.53;;;1.00;99.90;;;;;;8365146;28;20221;-73
2023/03/11 09:15:44;;;;;;;4.70;2.50;;;1.00;99.90;;;;;;8368591;28;20395;-74
2023/03/11 09:19:45;;;;;;;3.13;1.80;;;1.00;99.90;;;;;;8370352;28;20204;-72
2023/03/11 09:23:46;;;;;;;3.70;2.00;;;1.00;99.90;;;;;;8361901;28;20469;-75
2023/03/11 09:27:47;;;;;;;6.00;3.20;;;0.90;99.90;;;;;;8367467;28;20694;-73
2023/03/11 09:31:48;;;;;;;3.47;2.50;;;0.90;99.90;;;;;;8363625;28;20275;-72
2023/03/11 09:35:49;;;;;;;4.97;3.13;;;1.10;99.90;;;;;;8362756;28;20425;-73
2023/03/11 09:39:50;;;;;;;4.23;2.30;;;1.20;99.90;;;;;;8364692;28;20204;-73
2023/03/11 09:44:11;;;;;;;5.53;2.33;;;1.30;99.90;;;;;;8363506;28;20232;-72
2023/03/11 09:48:46;;;;;;;2.93;2.33;;;1.30;99.90;;;;;;8361716;28;20197;-72
2023/03/11 09:53:01;;;;;;;3.53;2.20;;;1.30;99.90;;;;;;8361873;28;20536;-72
2023/03/11 09:57:03;;;;;;;3.00;2.37;;;1.30;99.90;;;;;;8362074;28;20185;-72
2023/03/11 10:01:19;;;;;;;5.90;2.67;;;1.40;1.00;;;;;;8364769;28;20200;-73
2023/03/11 10:05:24;;;;;;;3.60;2.33;;;1.50;99.90;;;;;;8369333;28;20186;-71
2023/03/11 10:10:01;;;;;;;4.53;2.50;;;1.40;1.00;;;;;;8373363;28;20189;-72
2023/03/11 10:14:25;;;;;;;3.13;2.00;;;1.50;1.00;;;;;;8346078;28;20204;-72
2023/03/11 10:18:35;;;;;;;4.23;2.30;;;1.50;99.90;;;;;;8364625;28;20191;-73
2023/03/11 10:23:01;;;;;;;4.80;2.73;;;1.60;99.90;;;;;;8362874;28;20186;-72
2023/03/11 10:27:19;;;;;;;3.60;2.57;;;1.60;1.00;;;;;;8364257;28;20193;-73
2023/03/11 10:31:41;;;;;;;6.27;2.10;;;1.40;1.00;;;;;;8368627;28;20201;-72
2023/03/11 10:35:48;;;;;;;2.73;2.03;;;1.30;99.90;;;;;;8370452;28;20316;-73
2023/03/11 10:39:50;;;;;;;2.83;2.13;;;1.60;1.00;;;;;;8362170;28;20186;-72
2023/03/11 10:44:03;;;;;;;2.70;2.20;;;1.80;1.00;;;;;;8360150;28;20239;-74
2023/03/11 10:48:12;;;;;;;3.07;2.00;;;1.90;99.90;;;;;;8359159;28;20194;-72
2023/03/11 10:52:13;;;;;;;3.23;2.33;;;1.70;99.90;;;;;;8369551;28;20209;-74
2023/03/11 10:56:39;;;;;;;1.80;1.60;;;1.70;1.00;;;;;;8366940;28;20193;-74
2023/03/11 11:00:40;;;;;;;2.50;2.07;;;1.60;99.90;;;;;;8367596;28;20186;-73
2023/03/11 11:04:41;;;;;;;2.33;2.13;;;1.60;99.90;;;;;;8367702;28;20196;-73
2023/03/11 11:08:44;;;;;;;2.10;1.40;;;1.50;99.90;;;;;;8365277;28;20193;-72
2023/03/11 11:13:19;;;;;;;2.37;1.57;;;1.60;99.90;;;;;;8368882;28;20522;-74
2023/03/11 11:17:29;;;;;;;1.97;1.77;;;1.40;91.40;;;;;;8370170;28;20508;-75
2023/03/11 11:21:33;;;;;;;2.67;1.90;;;1.30;53.20;;;;;;8366758;28;20181;-73
2023/03/11 11:25:37;;;;;;;3.30;2.30;;;1.50;1.00;;;;;;8367764;28;20188;-73
2023/03/11 11:29:38;;;;;;;3.00;2.13;;;1.50;99.90;;;;;;8370894;28;20273;-74
2023/03/11 11:33:48;;;;;;;3.80;2.33;;;1.40;1.00;;;;;;8372145;28;20189;-73
2023/03/11 11:37:58;;;;;;;3.37;2.57;;;1.40;99.90;;;;;;8375944;28;20198;-73
2023/03/11 11:42:00;;;;;;;2.40;2.03;;;1.50;99.90;;;;;;8367536;28;20264;-72
2023/03/11 11:46:14;;;;;;;2.90;1.60;;;1.30;99.90;;;;;;8370781;28;20181;-72
2023/03/11 11:50:42;;;;;;;2.73;1.93;;;1.70;17.10;;;;;;8374083;28;20247;-73
2023/03/11 11:54:52;;;;;;;2.60;2.10;;;2.00;70.50;;;;;;8376240;28;20181;-72
2023/03/11 11:58:54;;;;;;;2.93;1.97;;;2.20;69.30;;;;;;8378644;28;20247;-71
2023/03/11 12:03:04;;;;;;;2.93;2.50;;;2.30;99.90;;;;;;8372890;28;20248;-73
2023/03/11 12:07:28;;;;;;;4.30;2.40;;;1.80;1.00;;;;;;8384638;28;20191;-72
2023/03/11 12:11:36;;;;;;;3.63;2.57;;;1.80;1.00;;;;;;8365228;28;20217;-73
2023/03/11 12:15:46;;;;;;;3.90;2.87;;;1.40;1.00;;;;;;8371312;28;20194;-72
2023/03/11 12:20:39;;;;;;;2.63;2.40;;;1.20;1.00;;;;;;8379758;28;20289;-71
2023/03/11 12:24:57;;;;;;;5.93;3.37;;;1.30;1.00;;;;;;8370607;28;20270;-71
2023/03/11 12:29:21;;;;;;;3.37;2.20;;;1.50;62.50;;;;;;8374168;28;20235;-72
2023/03/11 12:33:38;;;;;;;3.47;1.80;;;1.70;1.00;;;;;;8373809;28;20197;-73
2023/03/11 12:37:39;;;;;;;2.77;2.40;;;1.60;20.70;;;;;;8368770;28;20244;-73
2023/03/11 12:41:41;;;;;;;4.47;2.40;;;1.50;99.90;;;;;;8373504;28;20186;-73
2023/03/11 12:45:50;;;;;;;2.83;2.20;;;1.40;99.90;;;;;;8378566;28;20185;-72
2023/03/11 12:50:16;;;;;;;3.30;2.50;;;1.50;99.90;;;;;;8371101;28;20282;-72
2023/03/11 12:54:30;;;;;;;4.60;2.60;;;1.40;45.00;;;;;;8373729;28;20201;-74
2023/03/11 12:58:56;;;;;;;2.67;2.17;;;1.40;1.00;;;;;;8377993;28;20212;-73
2023/03/11 13:03:12;;;;;;;4.53;2.50;;;1.50;1.00;;;;;;8384496;28;20204;-73
2023/03/11 13:07:12;;;;;;;3.77;2.47;;;1.60;1.00;;;;;;8372797;28;20213;-73
2023/03/11 13:11:28;;;;;;;3.90;2.47;;;1.70;1.00;;;;;;8372109;28;20212;-74
2023/03/11 13:15:36;;;;;;;5.63;2.80;;;1.60;1.00;;;;;;8368834;28;20682;-73
2023/03/11 13:19:47;;;;;;;4.33;2.33;;;1.70;1.00;;;;;;8367751;28;20182;-74
2023/03/11 13:23:48;;;;;;;4.30;2.30;;;1.90;1.00;;;;;;8374964;28;20235;-74
2023/03/11 13:27:54;;;;;;;2.70;2.10;;;1.90;99.90;;;;;;8376775;28;20185;-74
2023/03/11 13:32:21;;;;;;;6.63;2.20;;;1.90;99.90;;;;;;8377974;28;20220;-72
2023/03/11 13:36:45;;;;;;;2.70;2.20;;;1.70;1.00;;;;;;8367444;28;20401;-73
2023/03/11 13:40:46;;;;;;;5.17;2.73;;;1.40;1.00;;;;;;8369460;28;20189;-73
2023/03/11 13:44:48;;;;;;;5.43;2.57;;;1.30;99.90;;;;;;8370077;28;20205;-73
2023/03/11 13:48:52;;;;;;;5.43;3.20;;;1.30;99.90;;;;;;8366963;28;20188;-73
2023/03/11 13:52:56;;;;;;;3.87;2.93;;;1.60;99.90;;;;;;8376236;28;20208;-74
2023/03/11 13:56:58;;;;;;;4.00;3.00;;;1.90;99.90;;;;;;8377462;28;20184;-73
2023/03/11 14:01:01;;;;;;;4.47;3.00;;;2.30;99.90;;;;;;8376277;28;20197;-72
2023/03/11 14:05:12;;;;;;;2.57;2.30;;;2.50;1.00;;;;;;8366478;28;20224;-73
2023/03/11 14:09:19;;;;;;;2.87;2.03;;;2.20;99.90;;;;;;8370182;28;20243;-73
2023/03/11 14:13:20;;;;;;;4.27;2.73;;;1.80;99.90;;;;;;8372439;28;20228;-72
2023/03/11 14:17:21;;;;;;;3.33;2.23;;;1.50;1.00;;;;;;8372621;28;20184;-74
2023/03/11 14:21:22;;;;;;;2.53;2.10;;;1.40;99.90;;;;;;8372221;28;20187;-74
2023/03/11 14:25:26;;;;;;;4.40;2.43;;;1.40;99.90;;;;;;8373255;28;20262;-72
2023/03/11 14:29:36;;;;;;;4.23;2.37;;;1.50;90.30;;;;;;8373126;28;20192;-67
2023/03/11 14:33:37;;;;;;;3.17;2.30;;;1.50;1.00;;;;;;8362366;28;20181;-66
2023/03/11 14:37:38;;;;;;;2.37;2.17;;;1.90;1.00;;;;;;8360970;28;20515;-66
2023/03/11 14:41:39;;;;;;;3.20;2.20;;;2.20;1.00;;;;;;8364715;28;20185;-66
2023/03/11 14:45:41;;;;;;;3.60;2.40;;;2.30;1.00;;;;;;8357224;28;20195;-66
2023/03/11 14:49:43;;;;;;;2.10;1.63;;;2.00;1.00;;;;;;8356322;28;20197;-66
2023/03/11 14:54:26;;;;;;;2.60;2.20;;;1.90;99.90;;;;;;8358311;28;20219;-66
2023/03/11 14:58:33;;;;;;;2.37;1.50;;;1.70;1.00;;;;;;8363137;28;20184;-67
2023/03/11 15:02:47;;;;;;;2.27;2.07;;;1.50;1.00;;;;;;8363204;28;20721;-67
2023/03/11 15:06:48;;;;;;;3.87;2.27;;;1.40;1.00;;;;;;8360715;28;20192;-67
2023/03/11 15:11:11;;;;;;;3.60;2.27;;;1.30;1.00;;;;;;8361677;28;20230;-66
2023/03/11 15:15:25;;;;;;;3.63;2.40;;;1.20;83.90;;;;;;8356713;28;20184;-67
2023/03/11 15:19:30;;;;;;;3.20;2.63;;;1.10;32.80;;;;;;8365157;28;20209;-66
2023/03/11 15:23:34;;;;;;;4.50;2.73;;;1.00;99.90;;;;;;8357839;28;20245;-66
2023/03/11 15:27:37;;;;;;;3.97;2.87;;;1.10;99.90;;;;;;8367850;28;20188;-66
2023/03/11 15:31:39;;;;;;;4.73;3.47;;;1.20;99.90;;;;;;8369111;28;20236;-69
2023/03/11 15:35:48;;;;;;;4.07;3.47;;;1.30;99.90;;;;;;8368871;28;20212;-70
2023/03/11 15:39:51;;;;;;;6.47;3.57;;;1.30;99.90;;;;;;8367462;28;20265;-69
2023/03/11 15:43:51;;;;;;;4.20;2.97;;;1.40;99.90;;;;;;8367761;28;20205;-69
2023/03/11 15:47:52;;;;;;;4.50;3.67;;;1.50;99.90;;;;;;8366247;28;20189;-69
2023/03/11 15:51:58;;;;;;;4.60;3.43;;;1.70;99.90;;;;;;8367143;28;20209;-69
2023/03/11 15:56:11;;;;;;;4.37;3.47;;;1.70;27.90;;;;;;8363731;28;20197;-69
2023/03/11 16:00:21;;;;;;;4.80;3.50;;;1.70;1.00;;;;;;8365178;28;20182;-69
2023/03/11 16:04:22;;;;;;;7.10;3.70;;;1.60;1.00;;;;;;8368728;28;20236;-69
2023/03/11 16:08:23;;;;;;;6.53;4.50;;;1.50;41.00;;;;;;8367176;28;20190;-67
2023/03/11 16:12:24;;;;;;;5.10;3.77;;;1.40;1.00;;;;;;8364742;28;20197;-66
2023/03/11 16:16:25;;;;;;;5.40;3.90;;;1.30;99.90;;;;;;8365620;28;20271;-69
2023/03/11 16:20:32;;;;;;;4.83;3.90;;;1.20;99.90;;;;;;8367859;28;20185;-69
2023/03/11 16:24:33;;;;;;;5.87;4.23;;;1.30;99.90;;;;;;8363964;28;20230;-69
2023/03/11 16:28:33;;;;;;;6.60;4.33;;;1.30;99.90;;;;;;8366289;28;20184;-69
2023/03/11 16:32:34;;;;;;;6.50;5.00;;;1.10;99.90;;;;;;8368600;28;20205;-70
2023/03/11 16:36:35;;;;;;;5.70;4.10;;;1.00;99.90;;;;;;8363822;28;20201;-69
2023/03/11 16:40:36;;;;;;;6.83;5.53;;;0.80;99.90;;;;;;8363420;28;20224;-69
2023/03/11 16:44:37;;;;;;;6.50;4.73;;;0.60;1.00;;;;;;8370215;28;20204;-67
2023/03/11 16:48:38;;;;;;;8.03;4.63;;;0.40;99.90;;;;;;8364386;28;20213;-67
2023/03/11 16:52:39;;;;;;;6.73;4.70;;;0.20;99.90;;;;;;8371468;28;20243;-67
2023/03/11 16:56:40;;;;;;;6.23;4.30;;;0.10;1.00;;;;;;8371445;28;20185;-69
2023/03/11 17:00:41;;;;;;;6.23;4.67;;;0.00;99.90;;;;;;8367471;28;20189;-69
2023/03/11 17:04:42;;;;;;;6.07;5.00;;;-0.10;1.00;;;;;;8364409;28;20188;-70
2023/03/11 17:08:47;;;;;;;6.00;4.77;;;-0.20;99.90;;;;;;8371802;28;20231;-70
2023/03/11 17:12:48;;;;;;;5.70;4.60;;;-0.30;99.90;;;;;;8367826;28;20338;-70
2023/03/11 17:16:52;;;;;;;5.17;4.30;;;-0.40;1.00;;;;;;8362790;28;20184;-70
2023/03/11 17:20:53;;;;;;;6.97;4.23;;;-0.50;5.10;;;;;;8365258;28;20189;-64
2023/03/11 17:24:54;;;;;;;5.77;4.43;;;-0.60;7.30;;;;;;8368030;28;20196;-64
2023/03/11 17:28:55;;;;;;;7.63;4.53;;;-0.70;99.90;;;;;;8361985;28;20264;-65
2023/03/11 17:32:56;;;;;;;6.40;4.70;;;-0.90;99.90;;;;;;8368070;28;20271;-64
2023/03/11 17:36:57;;;;;;;7.30;4.30;;;-1.00;99.90;;;;;;8364964;28;20242;-64
2023/03/11 17:40:58;;;;;;;6.27;4.13;;;-1.00;1.00;;;;;;8364409;28;20192;-64
2023/03/11 17:44:59;;;;;;;6.30;4.50;;;-1.10;99.90;;;;;;8363029;28;20526;-65
2023/03/11 17:49:00;;;;;;;7.20;4.80;;;-1.10;1.00;;;;;;8360340;28;20193;-64
2023/03/11 17:53:02;;;;;;;8.67;5.53;;;-1.20;99.90;;;;;;8365189;28;20270;-68
2023/03/11 17:57:05;;;;;;;6.23;4.83;;;-1.10;99.90;;;;;;8360741;28;20208;-65
2023/03/11 18:01:11;;;;;;;7.87;5.23;;;-1.10;99.90;;;;;;8361532;28;20192;-66
2023/03/11 18:05:12;;;;;;;9.87;4.63;;;-1.20;99.90;;;;;;8362567;28;20295;-64
2023/03/11 18:09:15;;;;;;;5.73;4.37;;;-1.20;99.90;;;;;;8363663;28;20184;-64
2023/03/11 18:13:16;;;;;;;7.20;4.73;;;-1.30;94.00;;;;;;8365523;28;20221;-65
2023/03/11 18:17:19;;;;;;;10.83;5.90;;;-1.30;35.70;;;;;;8365043;28;20195;-64
2023/03/11 18:21:23;;;;;;;11.47;5.40;;;-1.40;1.00;;;;;;8365521;28;20189;-64
2023/03/11 18:25:24;;;;;;;6.30;4.90;;;-1.40;1.00;;;;;;8368056;28;20197;-64
2023/03/11 18:29:25;;;;;;;6.43;4.13;;;-1.40;1.00;;;;;;8363831;28;20190;-64
2023/03/11 18:33:26;;;;;;;7.77;4.27;;;-1.50;1.00;;;;;;8362542;28;20201;-65
2023/03/11 18:37:27;;;;;;;7.90;4.97;;;-1.50;99.90;;;;;;8363950;28;20208;-64
2023/03/11 18:41:31;;;;;;;9.20;5.30;;;-1.60;1.00;;;;;;8365699;28;20180;-65
2023/03/11 18:45:32;;;;;;;8.17;5.23;;;-1.60;1.00;;;;;;8364704;28;20268;-65
2023/03/11 18:49:33;;;;;;;7.97;4.70;;;-1.60;1.00;;;;;;8360884;28;20536;-64
2023/03/11 18:53:35;;;;;;;6.23;4.60;;;-1.70;1.00;;;;;;8364100;28;20194;-64
2023/03/11 18:57:39;;;;;;;8.33;5.57;;;-1.70;1.00;;;;;;8366981;28;20177;-64
2023/03/11 19:01:40;;;;;;;9.03;5.50;;;-1.60;48.70;;;;;;8363478;28;20215;-64
2023/03/11 19:05:48;;;;;;;7.60;4.97;;;-1.60;31.90;;;;;;8361191;28;20192;-64
2023/03/11 19:09:50;;;;;;;8.07;5.13;;;-1.60;1.00;;;;;;8362596;28;20245;-64
2023/03/11 19:13:51;;;;;;;7.13;4.93;;;-1.70;1.00;;;;;;8361422;28;20218;-65
2023/03/11 19:17:52;;;;;;;7.17;5.17;;;-1.70;99.90;;;;;;8365101;28;20194;-64
2023/03/11 19:21:53;;;;;;;7.47;4.53;;;-1.70;1.00;;;;;;8361271;28;20194;-64
2023/03/11 19:25:54;;;;;;;8.43;5.03;;;-1.80;1.00;;;;;;8358146;28;20291;-64
2023/03/11 19:29:55;;;;;;;8.67;4.80;;;-1.80;1.00;;;;;;8377672;28;20215;-64
2023/03/11 19:33:55;;;;;;;8.13;4.83;;;-1.80;1.00;;;;;;8360514;28;20213;-64
2023/03/11 19:37:58;;;;;;;6.17;4.47;;;-1.80;1.00;;;;;;8375552;28;20223;-64
2023/03/11 19:41:59;;;;;;;8.73;5.63;;;-1.90;1.00;;;;;;8359292;28;20240;-64
2023/03/11 19:46:01;;;;;;;8.53;4.77;;;-1.90;1.00;;;;;;8357230;28;20183;-63
2023/03/11 19:50:02;;;;;;;7.20;4.57;;;-1.90;1.00;;;;;;8357264;28;20213;-63
2023/03/11 19:54:03;;;;;;;7.10;4.43;;;-2.00;1.00;;;;;;8367259;28;20397;-65
2023/03/11 19:58:04;;;;;;;8.23;4.87;;;-2.10;56.60;;;;;;8361035;28;20232;-63
2023/03/11 20:02:06;;;;;;;6.93;4.40;;;-2.20;99.90;;;;;;8361905;28;20191;-64
2023/03/11 20:06:07;;;;;;;5.73;4.00;;;-2.20;99.90;;;;;;8357258;28;20470;-63
2023/03/11 20:10:09;;;;;;;6.30;4.30;;;-2.20;99.90;;;;;;8364953;28;20225;-64
2023/03/11 20:14:11;;;;;;;8.80;4.90;;;-2.20;99.90;;;;;;8370872;28;20197;-64
2023/03/11 20:18:12;;;;;;;9.67;5.43;;;-2.30;99.90;;;;;;8366393;28;20179;-63
2023/03/11 20:22:13;;;;;;;6.20;4.33;;;-2.30;99.90;;;;;;8368484;28;20277;-63
2023/03/11 20:26:16;;;;;;;8.87;5.00;;;-2.40;99.90;;;;;;8369654;28;20271;-64
2023/03/11 20:30:20;;;;;;;8.90;5.27;;;-2.30;99.90;;;;;;8366446;28;20215;-65
2023/03/11 20:34:21;;;;;;;7.13;4.43;;;-2.30;99.90;;;;;;8364675;28;20182;-63
2023/03/11 20:38:23;;;;;;;7.30;5.00;;;-2.30;99.90;;;;;;8368771;28;20274;-64
2023/03/11 20:42:24;;;;;;;7.10;4.73;;;-2.30;99.90;;;;;;8367104;28;20205;-63
2023/03/11 20:46:26;;;;;;;8.27;4.77;;;-2.30;99.90;;;;;;8366436;28;20186;-63
2023/03/11 20:50:28;;;;;;;6.23;4.23;;;-2.30;99.90;;;;;;8365740;28;20218;-64
2023/03/11 20:54:28;;;;;;;8.30;4.87;;;-2.30;99.90;;;;;;8369473;28;20179;-64
2023/03/11 20:58:29;;;;;;;8.77;5.27;;;-2.30;99.90;;;;;;8367788;28;20604;-64
2023/03/11 21:02:33;;;;;;;7.27;5.37;;;-2.30;99.90;;;;;;8369101;28;20183;-66
2023/03/11 21:06:37;;;;;;;8.23;5.10;;;-2.30;99.90;;;;;;8368686;28;20224;-63
2023/03/11 21:10:38;;;;;;;8.30;4.83;;;-2.20;99.90;;;;;;8367791;28;20207;-65
2023/03/11 21:14:39;;;;;;;8.23;5.27;;;-2.20;99.90;;;;;;8365017;28;20190;-64
2023/03/11 21:18:42;;;;;;;8.17;4.83;;;-2.20;99.90;;;;;;8368603;28;20358;-63
2023/03/11 21:22:44;;;;;;;10.00;5.50;;;-2.20;99.90;;;;;;8363055;28;20186;-63
2023/03/11 21:26:47;;;;;;;6.57;4.30;;;-2.20;99.90;;;;;;8371428;28;20198;-63
2023/03/11 21:31:02;;;;;;;7.73;4.67;;;-2.20;99.90;;;;;;8370697;28;20208;-64